Time;durP1;ratioP1;P1;durP2;ratioP2;P2;SDS_P1;SDS_P2;PMS_P1;PMS_P2;Temp;Humidity;BMP_temperature;BMP_pressure;BME280_temperature;BME280_humidity;BME280_pressure;Samples;Min_cycle;Max_cycle;Signal;HPM_P1;HPM_P2
2023/12/13 00:00:09;;;;;;;6.70;3.78;;;;;;;;;;5056806;28;20085;-68
2023/12/13 00:02:35;;;;;;;4.72;3.72;;;;;;;;;;5056512;28;20036;-69
2023/12/13 00:05:01;;;;;;;6.43;3.67;;;;;;;;;;5060598;28;20036;-69
2023/12/13 00:07:27;;;;;;;5.28;3.85;;;;;;;;;;5063856;28;20079;-69
2023/12/13 00:09:54;;;;;;;6.72;4.15;;;;;;;;;;5057379;28;20279;-68
2023/12/13 00:12:20;;;;;;;5.10;3.80;;;;;;;;;;5062579;28;20520;-69
2023/12/13 00:14:46;;;;;;;5.28;3.50;;;;;;;;;;5056828;28;20119;-68
2023/12/13 00:17:14;;;;;;;6.53;4.63;;;;;;;;;;5060452;28;20024;-69
2023/12/13 00:19:41;;;;;;;5.53;4.05;;;;;;;;;;5051823;28;20110;-68
2023/12/13 00:22:07;;;;;;;4.68;3.55;;;;;;;;;;5056868;28;20056;-68
2023/12/13 00:24:33;;;;;;;4.72;3.67;;;;;;;;;;5051593;28;20562;-68
2023/12/13 00:26:59;;;;;;;5.45;4.00;;;;;;;;;;5046818;28;20036;-68
2023/12/13 00:29:25;;;;;;;4.53;3.95;;;;;;;;;;5049390;28;20025;-68
2023/12/13 00:31:52;;;;;;;5.65;3.55;;;;;;;;;;5059606;28;20048;-68
2023/12/13 00:34:18;;;;;;;6.47;3.85;;;;;;;;;;5059684;28;20127;-68
2023/12/13 00:36:44;;;;;;;4.88;3.80;;;;;;;;;;5061654;28;20488;-70
2023/12/13 00:39:10;;;;;;;5.30;3.97;;;;;;;;;;5058501;28;20085;-70
2023/12/13 00:41:36;;;;;;;6.32;3.33;;;;;;;;;;5065962;28;20021;-68
2023/12/13 00:44:03;;;;;;;3.83;3.13;;;;;;;;;;5048752;28;20188;-68
2023/12/13 00:46:29;;;;;;;5.68;3.65;;;;;;;;;;5076449;28;20170;-68
2023/12/13 00:48:55;;;;;;;4.97;3.35;;;;;;;;;;5057026;28;20021;-68
2023/12/13 00:51:25;;;;;;;3.28;2.85;;;;;;;;;;5062688;28;20059;-68
2023/12/13 00:53:51;;;;;;;3.40;3.08;;;;;;;;;;5054325;28;20029;-68
2023/12/13 00:56:18;;;;;;;3.28;2.90;;;;;;;;;;5071120;28;20043;-69
2023/12/13 00:58:45;;;;;;;3.55;3.00;;;;;;;;;;5053801;28;20028;-72
2023/12/13 01:01:11;;;;;;;5.57;2.80;;;;;;;;;;5072862;28;20102;-68
2023/12/13 01:03:37;;;;;;;3.67;2.95;;;;;;;;;;5051405;28;20126;-68
2023/12/13 01:06:07;;;;;;;4.57;2.88;;;;;;;;;;5059318;28;20036;-68
2023/12/13 01:08:33;;;;;;;4.95;2.63;;;;;;;;;;5058101;28;20028;-69
2023/12/13 01:11:00;;;;;;;3.15;2.72;;;;;;;;;;5055289;28;20040;-68
2023/12/13 01:13:27;;;;;;;3.65;2.53;;;;;;;;;;5047632;28;20021;-68
2023/12/13 01:15:53;;;;;;;2.78;2.28;;;;;;;;;;5063703;28;20033;-68
2023/12/13 01:18:20;;;;;;;5.50;3.28;;;;;;;;;;5056783;28;20029;-68
2023/12/13 01:20:46;;;;;;;2.75;2.38;;;;;;;;;;5059121;28;20527;-69
2023/12/13 01:23:15;;;;;;;3.03;2.72;;;;;;;;;;5056748;28;20477;-69
2023/12/13 01:25:41;;;;;;;3.42;2.50;;;;;;;;;;5053929;28;20040;-69
2023/12/13 01:28:08;;;;;;;3.40;2.60;;;;;;;;;;5054731;28;20185;-68
2023/12/13 01:30:34;;;;;;;2.92;2.60;;;;;;;;;;5055270;28;20063;-68
2023/12/13 01:33:00;;;;;;;3.42;2.35;;;;;;;;;;5069243;28;20032;-68
2023/12/13 01:35:26;;;;;;;3.33;2.72;;;;;;;;;;5061599;28;20028;-69
2023/12/13 01:37:52;;;;;;;3.08;2.47;;;;;;;;;;5057489;28;20507;-68
2023/12/13 01:40:18;;;;;;;4.15;2.33;;;;;;;;;;5060016;28;20195;-69
2023/12/13 01:42:45;;;;;;;2.85;2.35;;;;;;;;;;5056867;28;20027;-69
2023/12/13 01:45:11;;;;;;;4.60;2.60;;;;;;;;;;5060413;28;20045;-68
2023/12/13 01:47:37;;;;;;;2.85;2.35;;;;;;;;;;5060455;28;20028;-68
2023/12/13 01:50:04;;;;;;;2.42;2.15;;;;;;;;;;5058578;28;20021;-68
2023/12/13 01:52:30;;;;;;;3.25;2.40;;;;;;;;;;5067915;28;20032;-68
2023/12/13 01:54:56;;;;;;;3.75;2.78;;;;;;;;;;5056935;28;20040;-68
2023/12/13 01:57:25;;;;;;;5.53;2.38;;;;;;;;;;5055734;28;20488;-68
2023/12/13 01:59:51;;;;;;;3.33;2.60;;;;;;;;;;5055000;28;20043;-68
2023/12/13 02:02:18;;;;;;;3.70;2.35;;;;;;;;;;5050574;28;20032;-68
2023/12/13 02:04:45;;;;;;;4.38;2.75;;;;;;;;;;5056919;28;20048;-68
2023/12/13 02:07:11;;;;;;;3.33;2.80;;;;;;;;;;5059585;28;20104;-69
2023/12/13 02:09:37;;;;;;;2.80;2.30;;;;;;;;;;5051142;28;20155;-68
2023/12/13 02:12:04;;;;;;;3.75;2.78;;;;;;;;;;5056018;28;20079;-68
2023/12/13 02:14:31;;;;;;;2.78;2.47;;;;;;;;;;5052138;28;20416;-69
2023/12/13 02:16:57;;;;;;;5.55;2.20;;;;;;;;;;5064398;28;20664;-69
2023/12/13 02:19:23;;;;;;;4.63;2.80;;;;;;;;;;5066432;28;20055;-69
2023/12/13 02:21:49;;;;;;;4.43;2.80;;;;;;;;;;5057769;28;20063;-68
2023/12/13 02:24:18;;;;;;;3.42;2.67;;;;;;;;;;5064333;28;20030;-69
2023/12/13 02:26:45;;;;;;;3.33;2.38;;;;;;;;;;5067173;28;20029;-68
2023/12/13 02:29:12;;;;;;;2.63;2.35;;;;;;;;;;5070676;28;20116;-68
2023/12/13 02:31:41;;;;;;;3.58;2.60;;;;;;;;;;5053539;28;20032;-69
2023/12/13 02:34:07;;;;;;;3.70;2.70;;;;;;;;;;5059496;28;20043;-69
2023/12/13 02:36:33;;;;;;;3.35;2.63;;;;;;;;;;5058972;28;20479;-68
2023/12/13 02:38:59;;;;;;;3.30;2.60;;;;;;;;;;5053002;28;20028;-69
2023/12/13 02:41:25;;;;;;;4.93;2.80;;;;;;;;;;5060026;28;20031;-68
2023/12/13 02:43:51;;;;;;;3.42;2.60;;;;;;;;;;5056580;28;20045;-68
2023/12/13 02:46:18;;;;;;;4.20;2.50;;;;;;;;;;5059038;28;20044;-68
2023/12/13 02:48:47;;;;;;;3.20;2.60;;;;;;;;;;5060684;28;20078;-68
2023/12/13 02:51:14;;;;;;;4.20;2.88;;;;;;;;;;5066667;28;20047;-69
2023/12/13 02:53:40;;;;;;;3.83;2.63;;;;;;;;;;5064417;28;20718;-68
2023/12/13 02:56:07;;;;;;;5.18;2.85;;;;;;;;;;5066968;28;20408;-69
2023/12/13 02:58:33;;;;;;;3.05;2.65;;;;;;;;;;5060018;28;20020;-69
2023/12/13 03:00:59;;;;;;;3.90;2.70;;;;;;;;;;5061018;28;20559;-69
2023/12/13 03:03:25;;;;;;;5.10;2.80;;;;;;;;;;5062639;28;20032;-69
2023/12/13 03:05:52;;;;;;;3.58;2.90;;;;;;;;;;5061359;28;20048;-69
2023/12/13 03:08:18;;;;;;;3.40;2.70;;;;;;;;;;5066526;28;20199;-69
2023/12/13 03:10:44;;;;;;;3.33;2.78;;;;;;;;;;5062988;28;20075;-69
2023/12/13 03:13:10;;;;;;;3.42;2.53;;;;;;;;;;5065125;28;20032;-69
2023/12/13 03:15:36;;;;;;;5.20;3.00;;;;;;;;;;5058540;28;20037;-69
2023/12/13 03:18:02;;;;;;;5.60;2.65;;;;;;;;;;5059479;28;20493;-69
2023/12/13 03:20:30;;;;;;;3.95;2.50;;;;;;;;;;5056605;28;20976;-69
2023/12/13 03:22:56;;;;;;;2.92;2.40;;;;;;;;;;5063347;28;20560;-69
2023/12/13 03:25:23;;;;;;;3.75;2.30;;;;;;;;;;5060384;28;20032;-69
2023/12/13 03:27:49;;;;;;;3.80;2.72;;;;;;;;;;5055791;28;20078;-69
2023/12/13 03:30:15;;;;;;;4.38;2.70;;;;;;;;;;5058781;28;20103;-69
2023/12/13 03:32:41;;;;;;;2.95;2.38;;;;;;;;;;5060371;28;20035;-69
2023/12/13 03:35:07;;;;;;;3.15;2.40;;;;;;;;;;5063408;28;20029;-68
2023/12/13 03:37:34;;;;;;;3.05;2.45;;;;;;;;;;5059197;28;20044;-69
2023/12/13 03:40:00;;;;;;;4.90;3.17;;;;;;;;;;5055528;28;20042;-68
2023/12/13 03:42:27;;;;;;;4.07;2.30;;;;;;;;;;5054572;28;20029;-69
2023/12/13 03:44:53;;;;;;;2.72;2.20;;;;;;;;;;5055199;28;20049;-68
2023/12/13 03:47:22;;;;;;;3.40;2.60;;;;;;;;;;5062663;28;20047;-69
2023/12/13 03:49:48;;;;;;;3.88;2.58;;;;;;;;;;5059223;28;20109;-68
2023/12/13 03:52:14;;;;;;;2.88;2.35;;;;;;;;;;5059796;28;20384;-68
2023/12/13 03:54:40;;;;;;;2.85;2.20;;;;;;;;;;5056469;28;20025;-69
2023/12/13 03:57:06;;;;;;;6.38;2.28;;;;;;;;;;5060496;28;20051;-69
2023/12/13 03:59:33;;;;;;;2.40;2.20;;;;;;;;;;5054218;28;20034;-69
2023/12/13 04:01:59;;;;;;;3.28;2.25;;;;;;;;;;5055998;28;20036;-69
2023/12/13 04:04:25;;;;;;;3.25;2.35;;;;;;;;;;5070688;28;20024;-68
2023/12/13 04:06:51;;;;;;;6.82;2.50;;;;;;;;;;5059710;28;20031;-69
2023/12/13 04:09:20;;;;;;;3.35;2.22;;;;;;;;;;5060274;28;20027;-68
2023/12/13 04:11:46;;;;;;;2.67;2.17;;;;;;;;;;5059295;28;20500;-69
2023/12/13 04:14:12;;;;;;;2.00;1.80;;;;;;;;;;5050233;28;20558;-69
2023/12/13 04:16:38;;;;;;;2.75;2.20;;;;;;;;;;5056989;28;20054;-69
2023/12/13 04:19:04;;;;;;;3.00;2.05;;;;;;;;;;5062942;28;20274;-69
2023/12/13 04:21:30;;;;;;;5.07;2.30;;;;;;;;;;5066195;28;20024;-69
2023/12/13 04:23:57;;;;;;;2.58;2.05;;;;;;;;;;5062203;28;20388;-69
2023/12/13 04:26:23;;;;;;;3.65;2.35;;;;;;;;;;5056371;28;20530;-69
2023/12/13 04:28:49;;;;;;;3.65;2.45;;;;;;;;;;5076026;28;20028;-69
2023/12/13 04:31:16;;;;;;;2.83;2.28;;;;;;;;;;5061879;28;20384;-70
2023/12/13 04:33:42;;;;;;;2.72;2.20;;;;;;;;;;5063064;28;20423;-69
2023/12/13 04:36:09;;;;;;;4.13;2.10;;;;;;;;;;5059556;28;20033;-70
2023/12/13 04:38:36;;;;;;;3.58;2.00;;;;;;;;;;5060439;28;20081;-70
2023/12/13 04:41:02;;;;;;;2.35;2.00;;;;;;;;;;5060999;28;20028;-70
2023/12/13 04:43:28;;;;;;;5.82;2.42;;;;;;;;;;5053986;28;20036;-69
2023/12/13 04:45:55;;;;;;;4.35;1.95;;;;;;;;;;5062065;28;20052;-69
2023/12/13 04:48:21;;;;;;;2.25;1.90;;;;;;;;;;5074069;28;20135;-69
2023/12/13 04:50:47;;;;;;;6.20;2.03;;;;;;;;;;5062216;28;20021;-69
2023/12/13 04:53:13;;;;;;;2.13;1.92;;;;;;;;;;5059716;28;20112;-69
2023/12/13 04:55:39;;;;;;;2.25;1.90;;;;;;;;;;5053152;28;20037;-70
2023/12/13 04:58:06;;;;;;;3.08;2.00;;;;;;;;;;5055496;28;20059;-69
2023/12/13 05:00:32;;;;;;;1.88;1.70;;;;;;;;;;5055640;28;20369;-69
2023/12/13 05:02:58;;;;;;;1.90;1.80;;;;;;;;;;5058923;28;20036;-69
2023/12/13 05:05:24;;;;;;;1.77;1.67;;;;;;;;;;5060230;28;20719;-69
2023/12/13 05:07:50;;;;;;;3.33;2.00;;;;;;;;;;5059059;28;20144;-70
2023/12/13 05:10:17;;;;;;;1.92;1.83;;;;;;;;;;5060990;28;20025;-69
2023/12/13 05:12:43;;;;;;;2.55;1.50;;;;;;;;;;5057600;28;20086;-69
2023/12/13 05:15:09;;;;;;;3.10;1.80;;;;;;;;;;5061764;28;20059;-69
2023/12/13 05:17:35;;;;;;;2.50;1.85;;;;;;;;;;5055754;28;20044;-70
2023/12/13 05:20:03;;;;;;;2.05;1.85;;;;;;;;;;5063102;28;20028;-70
2023/12/13 05:22:30;;;;;;;3.28;1.95;;;;;;;;;;5050826;28;20542;-69
2023/12/13 05:24:56;;;;;;;2.08;1.88;;;;;;;;;;5068355;28;20029;-69
2023/12/13 05:27:22;;;;;;;2.80;1.73;;;;;;;;;;5053930;28;20045;-69
2023/12/13 05:29:48;;;;;;;2.95;1.50;;;;;;;;;;5060123;28;20100;-69
2023/12/13 05:32:14;;;;;;;5.05;1.80;;;;;;;;;;5062104;28;20029;-68
2023/12/13 05:34:40;;;;;;;2.22;1.60;;;;;;;;;;5063896;28;20104;-69
2023/12/13 05:37:06;;;;;;;1.80;1.70;;;;;;;;;;5057572;28;20086;-70
2023/12/13 05:39:33;;;;;;;1.80;1.70;;;;;;;;;;5048823;28;20380;-69
2023/12/13 05:41:59;;;;;;;2.20;1.90;;;;;;;;;;5056129;28;20040;-70
2023/12/13 05:44:27;;;;;;;1.67;1.58;;;;;;;;;;5074217;28;20444;-70
2023/12/13 05:46:53;;;;;;;2.75;1.60;;;;;;;;;;5056363;28;20634;-69
2023/12/13 05:49:19;;;;;;;1.60;1.50;;;;;;;;;;5058225;28;20024;-69
2023/12/13 05:51:45;;;;;;;1.73;1.63;;;;;;;;;;5061884;28;20020;-69
2023/12/13 05:54:11;;;;;;;1.65;1.55;;;;;;;;;;5064315;28;20029;-69
2023/12/13 05:56:38;;;;;;;2.05;1.85;;;;;;;;;;5058319;28;20048;-69
2023/12/13 05:59:04;;;;;;;1.35;1.35;;;;;;;;;;5050119;28;20045;-70
2023/12/13 06:01:31;;;;;;;2.80;1.90;;;;;;;;;;5062555;28;20032;-69
2023/12/13 06:03:57;;;;;;;2.05;1.50;;;;;;;;;;5063677;28;20499;-69
2023/12/13 06:06:23;;;;;;;2.08;1.63;;;;;;;;;;5062855;28;20111;-69
2023/12/13 06:08:49;;;;;;;1.55;1.45;;;;;;;;;;5078845;28;20021;-69
2023/12/13 06:11:15;;;;;;;1.65;1.55;;;;;;;;;;5061260;28;20055;-69
2023/12/13 06:13:41;;;;;;;1.50;1.40;;;;;;;;;;5063290;28;20078;-69
2023/12/13 06:16:12;;;;;;;1.60;1.50;;;;;;;;;;5063768;28;20028;-69
2023/12/13 06:18:39;;;;;;;1.65;1.55;;;;;;;;;;5064332;28;20033;-69
2023/12/13 06:21:06;;;;;;;1.60;1.50;;;;;;;;;;5062822;28;20107;-69
2023/12/13 06:23:33;;;;;;;3.78;1.60;;;;;;;;;;5062644;28;20039;-69
2023/12/13 06:25:59;;;;;;;4.10;1.50;;;;;;;;;;5060042;28;20025;-70
2023/12/13 06:28:25;;;;;;;1.45;1.35;;;;;;;;;;5062691;28;20033;-70
2023/12/13 06:30:51;;;;;;;2.05;1.85;;;;;;;;;;5061377;28;20090;-69
2023/12/13 06:33:18;;;;;;;1.60;1.30;;;;;;;;;;5062627;28;20036;-69
2023/12/13 06:35:45;;;;;;;4.85;1.65;;;;;;;;;;5057324;28;20036;-69
2023/12/13 06:38:12;;;;;;;2.05;1.70;;;;;;;;;;5059474;28;20058;-69
2023/12/13 06:40:38;;;;;;;2.78;1.80;;;;;;;;;;5059122;28;20024;-69
2023/12/13 06:43:05;;;;;;;2.45;1.90;;;;;;;;;;5062581;28;20036;-73
2023/12/13 06:45:31;;;;;;;2.88;1.67;;;;;;;;;;5064679;28;20316;-73
2023/12/13 06:47:58;;;;;;;2.25;2.00;;;;;;;;;;5060025;28;20025;-72
2023/12/13 06:50:24;;;;;;;2.15;1.90;;;;;;;;;;5060691;28;20035;-73
2023/12/13 06:52:51;;;;;;;2.65;1.70;;;;;;;;;;5067222;28;20021;-68
2023/12/13 06:55:18;;;;;;;3.90;1.90;;;;;;;;;;5061174;28;20032;-68
2023/12/13 06:57:45;;;;;;;3.28;2.03;;;;;;;;;;5060861;28;20496;-68
2023/12/13 07:00:11;;;;;;;1.90;1.70;;;;;;;;;;5059159;28;20041;-69
2023/12/13 07:02:39;;;;;;;3.13;1.90;;;;;;;;;;5058081;28;20040;-68
2023/12/13 07:05:07;;;;;;;3.10;1.95;;;;;;;;;;5063152;28;20039;-68
2023/12/13 07:07:33;;;;;;;2.42;2.10;;;;;;;;;;5056860;28;20673;-68
2023/12/13 07:09:59;;;;;;;2.90;2.05;;;;;;;;;;5057223;28;20358;-68
2023/12/13 07:12:29;;;;;;;2.40;2.20;;;;;;;;;;5071881;28;20037;-69
2023/12/13 07:14:56;;;;;;;3.67;1.95;;;;;;;;;;5056119;28;20146;-69
2023/12/13 07:17:23;;;;;;;3.35;2.10;;;;;;;;;;5054219;28;20761;-68
2023/12/13 07:19:50;;;;;;;3.70;2.30;;;;;;;;;;5048526;28;22026;-69
2023/12/13 07:22:18;;;;;;;5.60;2.75;;;;;;;;;;5055516;28;20039;-68
2023/12/13 07:24:45;;;;;;;3.40;2.47;;;;;;;;;;5056324;28;20024;-69
2023/12/13 07:27:11;;;;;;;2.95;2.38;;;;;;;;;;5054295;28;20039;-69
2023/12/13 07:29:37;;;;;;;2.75;2.20;;;;;;;;;;5071882;28;20078;-69
2023/12/13 07:32:04;;;;;;;3.88;2.50;;;;;;;;;;5058357;28;20040;-69
2023/12/13 07:34:30;;;;;;;4.63;2.38;;;;;;;;;;5056752;28;20119;-69
2023/12/13 07:36:56;;;;;;;3.35;2.35;;;;;;;;;;5050914;28;20032;-68
2023/12/13 07:39:24;;;;;;;4.03;2.60;;;;;;;;;;5057456;28;20284;-69
2023/12/13 07:41:50;;;;;;;3.03;2.63;;;;;;;;;;5058500;28;20033;-69
2023/12/13 07:44:16;;;;;;;3.70;2.70;;;;;;;;;;5057719;28;20028;-68
2023/12/13 07:46:43;;;;;;;4.60;2.50;;;;;;;;;;5055844;28;20048;-68
2023/12/13 07:49:09;;;;;;;3.65;2.97;;;;;;;;;;5056072;28;20036;-69
2023/12/13 07:51:35;;;;;;;3.08;2.58;;;;;;;;;;5053122;28;20755;-68
2023/12/13 07:54:02;;;;;;;5.47;2.72;;;;;;;;;;5061013;28;20032;-68
2023/12/13 07:56:29;;;;;;;3.90;2.85;;;;;;;;;;5055481;28;20037;-69
2023/12/13 07:58:55;;;;;;;3.13;2.63;;;;;;;;;;5077389;28;20039;-68
2023/12/13 08:01:22;;;;;;;4.60;2.15;;;;;;;;;;5060584;28;20078;-67
2023/12/13 08:03:48;;;;;;;4.60;2.88;;;;;;;;;;5056774;28;20038;-68
2023/12/13 08:06:15;;;;;;;3.22;2.60;;;;;;;;;;5052653;28;20052;-68
2023/12/13 08:08:41;;;;;;;4.90;2.75;;;;;;;;;;5074380;28;20171;-68
2023/12/13 08:11:08;;;;;;;3.08;2.08;;;;;;;;;;5058216;28;20029;-68
2023/12/13 08:13:35;;;;;;;8.00;2.55;;;;;;;;;;5049656;28;20032;-68
2023/12/13 08:16:05;;;;;;;3.65;2.35;;;;;;;;;;5057090;28;20025;-68
2023/12/13 08:18:31;;;;;;;3.75;2.50;;;;;;;;;;5062827;28;20104;-68
2023/12/13 08:20:57;;;;;;;3.63;2.67;;;;;;;;;;5055607;28;20032;-68
2023/12/13 08:23:23;;;;;;;6.65;2.95;;;;;;;;;;5062903;28;20028;-68
2023/12/13 08:25:50;;;;;;;4.28;2.63;;;;;;;;;;5059809;28;20033;-68
2023/12/13 08:28:16;;;;;;;5.50;2.75;;;;;;;;;;5056688;28;20047;-68
2023/12/13 08:30:42;;;;;;;5.63;2.53;;;;;;;;;;5059597;28;20031;-70
2023/12/13 08:33:08;;;;;;;3.55;2.63;;;;;;;;;;5054371;28;20851;-68
2023/12/13 08:35:35;;;;;;;5.03;2.85;;;;;;;;;;5057760;28;20028;-68
2023/12/13 08:38:01;;;;;;;9.65;2.67;;;;;;;;;;5076585;28;20373;-68
2023/12/13 08:40:27;;;;;;;3.53;2.67;;;;;;;;;;5075125;28;20028;-68
2023/12/13 08:42:53;;;;;;;3.45;2.53;;;;;;;;;;5055362;28;20033;-68
2023/12/13 08:45:20;;;;;;;2.70;2.20;;;;;;;;;;5054111;28;20075;-68
2023/12/13 08:47:46;;;;;;;3.80;2.65;;;;;;;;;;5050628;28;20082;-67
2023/12/13 08:50:14;;;;;;;3.42;2.58;;;;;;;;;;5046663;28;20027;-68
2023/12/13 08:52:40;;;;;;;4.05;2.58;;;;;;;;;;5060519;28;20365;-68
2023/12/13 08:55:10;;;;;;;2.88;2.50;;;;;;;;;;5057317;28;20115;-68
2023/12/13 08:57:38;;;;;;;4.63;2.28;;;;;;;;;;5060398;28;20099;-69
2023/12/13 09:00:06;;;;;;;3.58;1.80;;;;;;;;;;5058920;28;20033;-67
2023/12/13 09:02:32;;;;;;;1.83;1.70;;;;;;;;;;5059411;28;20036;-68
2023/12/13 09:04:58;;;;;;;2.25;2.00;;;;;;;;;;5061531;28;20365;-68
2023/12/13 09:07:24;;;;;;;2.90;2.58;;;;;;;;;;5056584;28;20086;-68
2023/12/13 09:09:51;;;;;;;2.35;2.10;;;;;;;;;;5053179;28;20033;-68
2023/12/13 09:12:17;;;;;;;4.28;2.10;;;;;;;;;;5062714;28;20031;-67
2023/12/13 09:14:43;;;;;;;3.17;2.40;;;;;;;;;;5051657;28;20520;-68
2023/12/13 09:17:10;;;;;;;5.28;2.40;;;;;;;;;;5056064;28;20040;-69
2023/12/13 09:19:36;;;;;;;9.02;2.67;;;;;;;;;;5059661;28;20425;-68
2023/12/13 09:22:03;;;;;;;4.70;2.03;;;;;;;;;;5055879;28;20025;-68
2023/12/13 09:24:30;;;;;;;3.72;2.08;;;;;;;;;;5060315;28;20047;-68
2023/12/13 09:26:56;;;;;;;2.53;2.20;;;;;;;;;;5061216;28;20040;-68
2023/12/13 09:29:22;;;;;;;1.80;1.70;;;;;;;;;;5061159;28;20021;-68
2023/12/13 09:31:48;;;;;;;2.83;2.10;;;;;;;;;;5064598;28;20029;-69
2023/12/13 09:34:15;;;;;;;5.13;1.75;;;;;;;;;;5061446;28;20335;-69
2023/12/13 09:36:41;;;;;;;2.28;2.00;;;;;;;;;;5062148;28;20033;-69
2023/12/13 09:39:08;;;;;;;3.05;1.90;;;;;;;;;;5059390;28;20055;-68
2023/12/13 09:41:52;;;;;;;3.63;1.90;;;;;;;;;;5059052;28;20036;-68
2023/12/13 09:44:20;;;;;;;4.72;2.13;;;;;;;;;;5077872;28;20385;-71
2023/12/13 09:46:46;;;;;;;2.72;1.90;;;;;;;;;;5057847;28;20405;-68
2023/12/13 09:49:13;;;;;;;4.18;2.00;;;;;;;;;;5058643;28;20649;-68
2023/12/13 09:51:39;;;;;;;5.07;2.40;;;;;;;;;;5061786;28;20024;-68
2023/12/13 09:54:06;;;;;;;6.82;2.55;;;;;;;;;;5077445;28;20043;-68
2023/12/13 09:56:32;;;;;;;1.98;1.77;;;;;;;;;;5056843;28;20087;-68
2023/12/13 09:58:58;;;;;;;2.17;1.98;;;;;;;;;;5060536;28;20369;-68
2023/12/13 10:01:25;;;;;;;2.80;1.80;;;;;;;;;;5064707;28;20032;-68
2023/12/13 10:03:54;;;;;;;1.70;1.60;;;;;;;;;;5063687;28;20040;-68
2023/12/13 10:06:20;;;;;;;2.55;1.90;;;;;;;;;;5054391;28;20476;-68
2023/12/13 10:08:53;;;;;;;1.73;1.63;;;;;;;;;;5059837;28;20445;-68
2023/12/13 10:11:20;;;;;;;5.43;1.75;;;;;;;;;;5053137;28;20033;-68
2023/12/13 10:13:46;;;;;;;5.53;2.50;;;;;;;;;;5078280;28;20029;-68
2023/12/13 10:16:15;;;;;;;8.75;1.58;;;;;;;;;;5065604;28;20028;-68
2023/12/13 10:18:41;;;;;;;2.42;1.77;;;;;;;;;;5063941;28;20510;-68
2023/12/13 10:21:11;;;;;;;2.50;1.70;;;;;;;;;;5055022;28;20039;-68
2023/12/13 10:23:37;;;;;;;6.60;2.92;;;;;;;;;;5065997;28;20029;-68
2023/12/13 10:26:05;;;;;;;4.25;1.67;;;;;;;;;;5068137;28;20055;-68
2023/12/13 10:28:31;;;;;;;3.55;2.38;;;;;;;;;;5066312;28;20114;-68
2023/12/13 10:30:57;;;;;;;2.28;1.90;;;;;;;;;;5060504;28;20032;-68
2023/12/13 10:33:23;;;;;;;2.15;1.70;;;;;;;;;;5058008;28;20029;-68
2023/12/13 10:35:51;;;;;;;1.90;1.70;;;;;;;;;;5061139;28;20055;-68
2023/12/13 10:38:18;;;;;;;5.75;2.83;;;;;;;;;;5061893;28;20118;-68
2023/12/13 10:40:46;;;;;;;5.18;1.60;;;;;;;;;;5066161;28;20039;-68
2023/12/13 10:43:12;;;;;;;2.17;1.80;;;;;;;;;;5054994;28;20106;-68
2023/12/13 10:45:41;;;;;;;3.95;1.83;;;;;;;;;;5059010;28;20278;-68
2023/12/13 10:48:08;;;;;;;1.65;1.55;;;;;;;;;;5057442;28;20646;-68
2023/12/13 10:50:38;;;;;;;1.70;1.60;;;;;;;;;;5055266;28;20060;-68
2023/12/13 10:53:05;;;;;;;1.55;1.45;;;;;;;;;;5056166;28;20099;-70
2023/12/13 10:55:31;;;;;;;1.73;1.50;;;;;;;;;;5064300;28;20028;-68
2023/12/13 10:57:58;;;;;;;3.00;1.70;;;;;;;;;;5059951;28;20375;-68
2023/12/13 11:00:26;;;;;;;7.18;2.10;;;;;;;;;;5059747;28;20428;-68
2023/12/13 11:02:56;;;;;;;2.60;1.73;;;;;;;;;;5063481;28;20028;-67
2023/12/13 11:05:23;;;;;;;5.80;2.00;;;;;;;;;;5061858;28;20064;-68
2023/12/13 11:07:51;;;;;;;1.90;1.75;;;;;;;;;;5060770;28;20028;-68
2023/12/13 11:10:17;;;;;;;3.47;1.85;;;;;;;;;;5076997;28;20319;-68
2023/12/13 11:12:50;;;;;;;2.17;1.88;;;;;;;;;;5065164;28;20021;-67
2023/12/13 11:15:18;;;;;;;5.07;2.08;;;;;;;;;;5059120;28;20484;-68
2023/12/13 11:17:50;;;;;;;2.95;1.88;;;;;;;;;;5071924;28;20040;-68
2023/12/13 11:20:17;;;;;;;1.90;1.75;;;;;;;;;;5073244;28;20035;-68
2023/12/13 11:22:45;;;;;;;1.95;1.70;;;;;;;;;;5061393;28;20733;-68
2023/12/13 11:25:11;;;;;;;6.15;1.77;;;;;;;;;;5054900;28;20593;-68
2023/12/13 11:27:46;;;;;;;1.83;1.65;;;;;;;;;;5057212;28;20076;-67
2023/12/13 11:30:13;;;;;;;2.90;2.50;;;;;;;;;;5059271;28;20036;-68
2023/12/13 11:32:43;;;;;;;5.40;1.77;;;;;;;;;;5058485;28;20032;-68
2023/12/13 11:35:16;;;;;;;1.70;1.60;;;;;;;;;;5062741;28;20514;-68
2023/12/13 11:37:53;;;;;;;4.00;1.90;;;;;;;;;;5058815;28;20070;-68
2023/12/13 11:40:19;;;;;;;2.83;2.08;;;;;;;;;;5060508;28;20396;-68
2023/12/13 11:42:46;;;;;;;3.28;2.28;;;;;;;;;;5057143;28;20102;-68
2023/12/13 11:45:14;;;;;;;4.20;2.00;;;;;;;;;;5056893;28;20040;-70
2023/12/13 11:47:46;;;;;;;4.13;2.25;;;;;;;;;;5059118;28;20024;-68
2023/12/13 11:50:13;;;;;;;3.03;2.17;;;;;;;;;;5057633;28;20013;-68
2023/12/13 11:52:39;;;;;;;3.65;2.10;;;;;;;;;;5065616;28;20484;-70
2023/12/13 11:55:08;;;;;;;4.18;1.90;;;;;;;;;;5055793;28;20037;-68
2023/12/13 11:57:35;;;;;;;3.28;2.10;;;;;;;;;;5055738;28;20059;-67
2023/12/13 12:00:02;;;;;;;3.45;2.10;;;;;;;;;;5059596;28;20564;-68
2023/12/13 12:02:28;;;;;;;4.78;2.00;;;;;;;;;;5060740;28;20111;-68
2023/12/13 12:04:54;;;;;;;5.75;2.15;;;;;;;;;;5058563;28;20425;-67
2023/12/13 12:07:20;;;;;;;2.40;1.90;;;;;;;;;;5051691;28;20020;-68
2023/12/13 12:09:50;;;;;;;7.28;1.83;;;;;;;;;;5061631;28;20021;-68
2023/12/13 12:12:17;;;;;;;3.13;2.13;;;;;;;;;;5053921;28;20099;-68
2023/12/13 12:14:45;;;;;;;2.42;1.92;;;;;;;;;;5054557;28;20542;-71
2023/12/13 12:17:12;;;;;;;2.63;1.85;;;;;;;;;;5068456;28;20085;-69
2023/12/13 12:19:39;;;;;;;2.78;2.30;;;;;;;;;;5071731;28;20031;-68
2023/12/13 12:22:05;;;;;;;5.43;2.17;;;;;;;;;;5059514;28;20017;-68
2023/12/13 12:24:37;;;;;;;5.18;1.95;;;;;;;;;;5056774;28;20021;-71
2023/12/13 12:27:10;;;;;;;5.25;1.90;;;;;;;;;;5066313;28;20027;-68
2023/12/13 12:29:36;;;;;;;3.65;2.10;;;;;;;;;;5064978;28;20055;-68
2023/12/13 12:32:08;;;;;;;3.83;2.15;;;;;;;;;;5052128;28;20071;-68
2023/12/13 12:34:41;;;;;;;3.55;1.75;;;;;;;;;;5059844;28;20566;-68
2023/12/13 12:37:07;;;;;;;2.55;1.85;;;;;;;;;;5063735;28;20395;-68
2023/12/13 12:39:34;;;;;;;4.75;2.08;;;;;;;;;;5058640;28;20024;-68
2023/12/13 12:42:03;;;;;;;2.05;1.55;;;;;;;;;;5055787;28;20024;-68
2023/12/13 12:44:30;;;;;;;3.47;1.92;;;;;;;;;;5060983;28;20036;-68
2023/12/13 12:46:56;;;;;;;2.45;2.13;;;;;;;;;;5057381;28;20043;-68
2023/12/13 12:49:22;;;;;;;2.50;1.67;;;;;;;;;;5057045;28;20032;-68
2023/12/13 12:51:49;;;;;;;2.50;1.60;;;;;;;;;;5059343;28;20029;-68
2023/12/13 12:54:16;;;;;;;2.20;2.00;;;;;;;;;;5059143;28;20038;-68
2023/12/13 12:56:43;;;;;;;4.57;1.73;;;;;;;;;;5053646;28;20036;-68
2023/12/13 12:59:14;;;;;;;2.67;1.60;;;;;;;;;;5060156;28;20643;-68
2023/12/13 13:01:42;;;;;;;1.90;1.70;;;;;;;;;;5047905;28;20435;-68
2023/12/13 13:04:12;;;;;;;3.55;2.20;;;;;;;;;;5053409;28;20032;-69
2023/12/13 13:06:38;;;;;;;1.77;1.60;;;;;;;;;;5049387;28;20040;-68
2023/12/13 13:09:06;;;;;;;3.40;1.80;;;;;;;;;;5076935;28;20754;-68
2023/12/13 13:11:33;;;;;;;3.42;1.88;;;;;;;;;;5061186;28;21121;-68
2023/12/13 13:14:00;;;;;;;2.28;1.63;;;;;;;;;;5056235;28;20028;-68
2023/12/13 13:16:26;;;;;;;2.80;1.95;;;;;;;;;;5054589;28;20631;-68
2023/12/13 13:18:53;;;;;;;1.98;1.58;;;;;;;;;;5050824;28;20029;-68
2023/12/13 13:21:20;;;;;;;3.47;1.70;;;;;;;;;;5052833;28;20146;-67
2023/12/13 13:23:46;;;;;;;4.00;1.88;;;;;;;;;;5062545;28;20024;-68
2023/12/13 13:26:12;;;;;;;5.50;1.75;;;;;;;;;;5057066;28;20024;-67
2023/12/13 13:28:38;;;;;;;2.00;1.70;;;;;;;;;;5061510;28;20028;-67
2023/12/13 13:31:05;;;;;;;2.65;1.70;;;;;;;;;;5049256;28;20036;-68
2023/12/13 13:33:32;;;;;;;3.40;1.80;;;;;;;;;;5056095;28;20044;-68
2023/12/13 13:35:58;;;;;;;2.53;1.63;;;;;;;;;;5062169;28;20028;-67
2023/12/13 13:38:24;;;;;;;6.05;2.05;;;;;;;;;;5061174;28;20080;-67
2023/12/13 13:40:50;;;;;;;2.47;1.80;;;;;;;;;;5060177;28;20035;-67
2023/12/13 13:43:16;;;;;;;2.72;1.77;;;;;;;;;;5062499;28;20025;-67
2023/12/13 13:45:42;;;;;;;3.42;2.35;;;;;;;;;;5062485;28;20068;-67
2023/12/13 13:48:09;;;;;;;5.80;4.65;;;;;;;;;;5048659;28;20090;-67
2023/12/13 13:50:37;;;;;;;1.80;1.55;;;;;;;;;;5057412;28;20167;-67
2023/12/13 13:53:06;;;;;;;2.28;1.85;;;;;;;;;;5058531;28;20024;-67
2023/12/13 13:55:35;;;;;;;5.50;2.35;;;;;;;;;;5062923;28;20546;-67
2023/12/13 13:58:01;;;;;;;3.05;2.30;;;;;;;;;;5059892;28;20335;-69
2023/12/13 14:00:28;;;;;;;4.63;1.95;;;;;;;;;;5067925;28;20029;-67
2023/12/13 14:02:58;;;;;;;2.60;1.98;;;;;;;;;;5075264;28;20080;-68
2023/12/13 14:05:25;;;;;;;4.68;2.47;;;;;;;;;;5056430;28;20867;-68
2023/12/13 14:07:51;;;;;;;5.90;2.30;;;;;;;;;;5065841;28;20035;-67
2023/12/13 14:10:17;;;;;;;2.13;1.70;;;;;;;;;;5064317;28;20033;-68
2023/12/13 14:12:44;;;;;;;4.25;2.35;;;;;;;;;;5052399;28;20060;-68
2023/12/13 14:15:11;;;;;;;6.00;3.17;;;;;;;;;;5064319;28;20076;-67
2023/12/13 14:17:37;;;;;;;6.22;4.47;;;;;;;;;;5063727;28;20027;-67
2023/12/13 14:20:04;;;;;;;4.32;2.63;;;;;;;;;;5061659;28;20029;-68
2023/12/13 14:22:31;;;;;;;3.67;2.70;;;;;;;;;;5053915;28;20498;-67
2023/12/13 14:24:57;;;;;;;7.15;4.30;;;;;;;;;;5061209;28;20031;-68
2023/12/13 14:27:23;;;;;;;4.57;3.20;;;;;;;;;;5060165;28;20027;-67
2023/12/13 14:29:49;;;;;;;8.50;5.13;;;;;;;;;;5051067;28;20029;-67
2023/12/13 14:32:15;;;;;;;8.95;7.05;;;;;;;;;;5066211;28;20028;-67
2023/12/13 14:34:41;;;;;;;11.70;6.22;;;;;;;;;;5058781;28;20048;-67
2023/12/13 14:37:08;;;;;;;5.40;4.50;;;;;;;;;;5063815;28;20024;-68
2023/12/13 14:39:34;;;;;;;7.32;4.70;;;;;;;;;;5070306;28;21221;-67